sensor_id;sensor_type;location;lat;lon;timestamp;P1;durP1;ratioP1;P2;durP2;ratioP2
23140;SDS011;11739;54.750;9.124;2022-11-15T00:00:53;56.53;;;35.03;;
23140;SDS011;11739;54.750;9.124;2022-11-15T00:03:23;57.85;;;35.42;;
23140;SDS011;11739;54.750;9.124;2022-11-15T00:05:51;56.80;;;35.83;;
23140;SDS011;11739;54.750;9.124;2022-11-15T00:08:17;54.95;;;36.38;;
23140;SDS011;11739;54.750;9.124;2022-11-15T00:10:54;60.33;;;35.88;;
23140;SDS011;11739;54.750;9.124;2022-11-15T00:13:23;56.85;;;36.05;;
23140;SDS011;11739;54.750;9.124;2022-11-15T00:15:50;58.17;;;35.25;;
23140;SDS011;11739;54.750;9.124;2022-11-15T00:18:17;59.45;;;35.83;;
23140;SDS011;11739;54.750;9.124;2022-11-15T00:20:44;59.17;;;36.88;;
23140;SDS011;11739;54.750;9.124;2022-11-15T00:23:10;56.25;;;35.75;;
23140;SDS011;11739;54.750;9.124;2022-11-15T00:25:37;51.17;;;33.08;;
23140;SDS011;11739;54.750;9.124;2022-11-15T00:28:03;55.60;;;34.65;;
23140;SDS011;11739;54.750;9.124;2022-11-15T00:30:30;55.53;;;34.72;;
23140;SDS011;11739;54.750;9.124;2022-11-15T00:33:01;53.65;;;35.20;;
23140;SDS011;11739;54.750;9.124;2022-11-15T00:35:28;55.95;;;34.75;;
23140;SDS011;11739;54.750;9.124;2022-11-15T00:37:54;56.60;;;35.00;;
23140;SDS011;11739;54.750;9.124;2022-11-15T00:40:21;60.15;;;36.70;;
23140;SDS011;11739;54.750;9.124;2022-11-15T00:42:47;61.55;;;37.13;;
23140;SDS011;11739;54.750;9.124;2022-11-15T00:45:14;61.17;;;36.25;;
23140;SDS011;11739;54.750;9.124;2022-11-15T00:47:40;62.30;;;36.90;;
23140;SDS011;11739;54.750;9.124;2022-11-15T00:50:10;65.15;;;38.28;;
23140;SDS011;11739;54.750;9.124;2022-11-15T00:52:40;57.33;;;36.50;;
23140;SDS011;11739;54.750;9.124;2022-11-15T00:55:08;59.75;;;37.97;;
23140;SDS011;11739;54.750;9.124;2022-11-15T00:57:38;59.25;;;34.50;;
23140;SDS011;11739;54.750;9.124;2022-11-15T01:00:05;59.67;;;36.05;;
23140;SDS011;11739;54.750;9.124;2022-11-15T01:02:32;60.85;;;37.47;;
23140;SDS011;11739;54.750;9.124;2022-11-15T01:04:58;60.20;;;38.22;;
23140;SDS011;11739;54.750;9.124;2022-11-15T01:07:25;57.20;;;36.80;;
23140;SDS011;11739;54.750;9.124;2022-11-15T01:09:51;58.72;;;36.08;;
23140;SDS011;11739;54.750;9.124;2022-11-15T01:12:18;65.20;;;37.13;;
23140;SDS011;11739;54.750;9.124;2022-11-15T01:14:45;58.63;;;36.85;;
23140;SDS011;11739;54.750;9.124;2022-11-15T01:17:11;61.22;;;36.78;;
23140;SDS011;11739;54.750;9.124;2022-11-15T01:19:38;60.30;;;36.63;;
23140;SDS011;11739;54.750;9.124;2022-11-15T01:22:04;58.63;;;36.47;;
23140;SDS011;11739;54.750;9.124;2022-11-15T01:24:30;61.08;;;37.33;;
23140;SDS011;11739;54.750;9.124;2022-11-15T01:26:57;57.22;;;37.05;;
23140;SDS011;11739;54.750;9.124;2022-11-15T01:29:23;59.58;;;37.03;;
23140;SDS011;11739;54.750;9.124;2022-11-15T01:31:50;60.78;;;38.28;;
23140;SDS011;11739;54.750;9.124;2022-11-15T01:34:16;61.00;;;37.00;;
23140;SDS011;11739;54.750;9.124;2022-11-15T01:36:43;57.30;;;37.13;;
23140;SDS011;11739;54.750;9.124;2022-11-15T01:39:09;55.90;;;36.90;;
23140;SDS011;11739;54.750;9.124;2022-11-15T01:41:36;52.13;;;35.47;;
23140;SDS011;11739;54.750;9.124;2022-11-15T01:46:57;57.08;;;35.95;;
23140;SDS011;11739;54.750;9.124;2022-11-15T01:49:24;55.25;;;35.78;;
23140;SDS011;11739;54.750;9.124;2022-11-15T01:51:53;55.25;;;35.25;;
23140;SDS011;11739;54.750;9.124;2022-11-15T01:54:20;53.83;;;35.47;;
23140;SDS011;11739;54.750;9.124;2022-11-15T01:56:48;50.65;;;33.75;;
23140;SDS011;11739;54.750;9.124;2022-11-15T01:59:23;51.00;;;34.47;;
23140;SDS011;11739;54.750;9.124;2022-11-15T02:01:49;54.67;;;34.53;;
23140;SDS011;11739;54.750;9.124;2022-11-15T02:04:17;51.25;;;35.15;;
23140;SDS011;11739;54.750;9.124;2022-11-15T02:06:45;53.80;;;34.53;;
23140;SDS011;11739;54.750;9.124;2022-11-15T02:09:13;50.10;;;34.05;;
23140;SDS011;11739;54.750;9.124;2022-11-15T02:11:39;52.42;;;33.72;;
23140;SDS011;11739;54.750;9.124;2022-11-15T02:14:06;52.60;;;34.90;;
23140;SDS011;11739;54.750;9.124;2022-11-15T02:16:43;53.17;;;36.00;;
23140;SDS011;11739;54.750;9.124;2022-11-15T02:22:37;56.53;;;35.72;;
23140;SDS011;11739;54.750;9.124;2022-11-15T02:41:27;49.88;;;33.03;;
23140;SDS011;11739;54.750;9.124;2022-11-15T02:44:02;45.28;;;31.90;;
23140;SDS011;11739;54.750;9.124;2022-11-15T02:46:36;50.28;;;34.13;;
23140;SDS011;11739;54.750;9.124;2022-11-15T02:49:24;47.25;;;32.97;;
23140;SDS011;11739;54.750;9.124;2022-11-15T02:51:54;48.83;;;32.72;;
23140;SDS011;11739;54.750;9.124;2022-11-15T02:54:22;47.45;;;32.67;;
23140;SDS011;11739;54.750;9.124;2022-11-15T02:56:49;49.65;;;33.20;;
23140;SDS011;11739;54.750;9.124;2022-11-15T02:59:24;50.20;;;33.08;;
23140;SDS011;11739;54.750;9.124;2022-11-15T03:04:55;51.65;;;32.78;;
23140;SDS011;11739;54.750;9.124;2022-11-15T03:10:13;43.70;;;31.02;;
23140;SDS011;11739;54.750;9.124;2022-11-15T03:12:55;43.35;;;30.05;;
23140;SDS011;11739;54.750;9.124;2022-11-15T03:17:54;40.22;;;29.52;;
23140;SDS011;11739;54.750;9.124;2022-11-15T03:20:25;41.25;;;29.63;;
23140;SDS011;11739;54.750;9.124;2022-11-15T03:22:53;41.90;;;28.88;;
23140;SDS011;11739;54.750;9.124;2022-11-15T03:25:22;41.20;;;28.85;;
23140;SDS011;11739;54.750;9.124;2022-11-15T03:27:51;40.45;;;29.50;;
23140;SDS011;11739;54.750;9.124;2022-11-15T03:30:19;40.92;;;28.88;;
23140;SDS011;11739;54.750;9.124;2022-11-15T03:32:47;39.70;;;28.20;;
23140;SDS011;11739;54.750;9.124;2022-11-15T03:35:23;39.88;;;30.48;;
23140;SDS011;11739;54.750;9.124;2022-11-15T03:43:34;37.47;;;28.75;;
23140;SDS011;11739;54.750;9.124;2022-11-15T03:46:08;41.97;;;29.05;;
23140;SDS011;11739;54.750;9.124;2022-11-15T03:49:08;40.30;;;28.48;;
23140;SDS011;11739;54.750;9.124;2022-11-15T03:51:38;33.13;;;26.02;;
23140;SDS011;11739;54.750;9.124;2022-11-15T03:54:04;40.13;;;29.02;;
23140;SDS011;11739;54.750;9.124;2022-11-15T03:56:31;35.97;;;28.67;;
23140;SDS011;11739;54.750;9.124;2022-11-15T03:58:57;42.47;;;29.42;;
23140;SDS011;11739;54.750;9.124;2022-11-15T04:01:24;38.28;;;27.30;;
23140;SDS011;11739;54.750;9.124;2022-11-15T04:03:50;40.05;;;29.52;;
23140;SDS011;11739;54.750;9.124;2022-11-15T04:06:17;40.65;;;28.20;;
23140;SDS011;11739;54.750;9.124;2022-11-15T04:08:43;43.03;;;29.65;;
23140;SDS011;11739;54.750;9.124;2022-11-15T04:11:10;39.47;;;29.23;;
23140;SDS011;11739;54.750;9.124;2022-11-15T04:13:36;43.28;;;29.30;;
23140;SDS011;11739;54.750;9.124;2022-11-15T04:16:03;41.20;;;28.48;;
23140;SDS011;11739;54.750;9.124;2022-11-15T04:18:29;38.90;;;29.35;;
23140;SDS011;11739;54.750;9.124;2022-11-15T04:20:56;40.65;;;28.42;;
23140;SDS011;11739;54.750;9.124;2022-11-15T04:23:41;42.13;;;30.27;;
23140;SDS011;11739;54.750;9.124;2022-11-15T04:26:26;41.28;;;29.42;;
23140;SDS011;11739;54.750;9.124;2022-11-15T04:28:53;44.20;;;30.02;;
23140;SDS011;11739;54.750;9.124;2022-11-15T04:31:38;42.17;;;29.70;;
23140;SDS011;11739;54.750;9.124;2022-11-15T04:34:04;43.03;;;29.75;;
23140;SDS011;11739;54.750;9.124;2022-11-15T04:36:31;42.50;;;29.42;;
23140;SDS011;11739;54.750;9.124;2022-11-15T04:39:16;43.03;;;29.25;;
23140;SDS011;11739;54.750;9.124;2022-11-15T04:41:42;44.65;;;29.90;;
23140;SDS011;11739;54.750;9.124;2022-11-15T04:44:09;43.15;;;30.83;;
23140;SDS011;11739;54.750;9.124;2022-11-15T04:46:35;45.97;;;31.10;;
23140;SDS011;11739;54.750;9.124;2022-11-15T04:49:02;43.35;;;29.02;;
23140;SDS011;11739;54.750;9.124;2022-11-15T04:51:28;44.95;;;30.45;;
23140;SDS011;11739;54.750;9.124;2022-11-15T04:53:55;48.80;;;31.52;;
23140;SDS011;11739;54.750;9.124;2022-11-15T04:56:21;45.40;;;30.75;;
23140;SDS011;11739;54.750;9.124;2022-11-15T04:58:48;48.67;;;30.83;;
23140;SDS011;11739;54.750;9.124;2022-11-15T05:01:15;44.42;;;30.13;;
23140;SDS011;11739;54.750;9.124;2022-11-15T05:03:43;45.95;;;32.13;;
23140;SDS011;11739;54.750;9.124;2022-11-15T05:06:28;42.80;;;29.48;;
23140;SDS011;11739;54.750;9.124;2022-11-15T05:08:55;43.97;;;30.50;;
23140;SDS011;11739;54.750;9.124;2022-11-15T05:11:22;44.53;;;29.50;;
23140;SDS011;11739;54.750;9.124;2022-11-15T05:13:49;42.85;;;30.10;;
23140;SDS011;11739;54.750;9.124;2022-11-15T05:16:15;47.85;;;31.60;;
23140;SDS011;11739;54.750;9.124;2022-11-15T05:18:42;49.30;;;32.00;;
23140;SDS011;11739;54.750;9.124;2022-11-15T05:21:10;45.97;;;29.55;;
23140;SDS011;11739;54.750;9.124;2022-11-15T05:23:38;51.33;;;31.70;;
23140;SDS011;11739;54.750;9.124;2022-11-15T05:26:05;46.53;;;31.27;;
23140;SDS011;11739;54.750;9.124;2022-11-15T05:28:34;47.33;;;30.83;;
23140;SDS011;11739;54.750;9.124;2022-11-15T05:31:06;50.72;;;33.45;;
23140;SDS011;11739;54.750;9.124;2022-11-15T05:33:34;50.85;;;31.67;;
23140;SDS011;11739;54.750;9.124;2022-11-15T05:36:06;44.95;;;31.63;;
23140;SDS011;11739;54.750;9.124;2022-11-15T05:38:36;49.03;;;31.80;;
23140;SDS011;11739;54.750;9.124;2022-11-15T05:41:02;48.75;;;31.70;;
23140;SDS011;11739;54.750;9.124;2022-11-15T05:43:29;44.83;;;29.85;;
23140;SDS011;11739;54.750;9.124;2022-11-15T05:45:58;49.10;;;32.75;;
23140;SDS011;11739;54.750;9.124;2022-11-15T05:48:25;50.15;;;32.05;;
23140;SDS011;11739;54.750;9.124;2022-11-15T05:50:52;48.53;;;31.27;;
23140;SDS011;11739;54.750;9.124;2022-11-15T05:53:19;47.63;;;32.03;;
23140;SDS011;11739;54.750;9.124;2022-11-15T05:55:46;50.80;;;32.15;;
23140;SDS011;11739;54.750;9.124;2022-11-15T05:58:13;49.60;;;33.30;;
23140;SDS011;11739;54.750;9.124;2022-11-15T06:00:39;51.40;;;31.73;;
23140;SDS011;11739;54.750;9.124;2022-11-15T06:03:06;47.28;;;31.77;;
23140;SDS011;11739;54.750;9.124;2022-11-15T06:05:33;54.22;;;33.70;;
23140;SDS011;11739;54.750;9.124;2022-11-15T06:07:59;50.72;;;32.85;;
23140;SDS011;11739;54.750;9.124;2022-11-15T06:10:26;48.50;;;31.67;;
23140;SDS011;11739;54.750;9.124;2022-11-15T06:12:56;56.13;;;34.13;;
23140;SDS011;11739;54.750;9.124;2022-11-15T06:15:23;52.70;;;32.78;;
23140;SDS011;11739;54.750;9.124;2022-11-15T06:17:50;56.13;;;34.63;;
23140;SDS011;11739;54.750;9.124;2022-11-15T06:20:17;51.33;;;33.58;;
23140;SDS011;11739;54.750;9.124;2022-11-15T06:22:43;47.53;;;32.75;;
23140;SDS011;11739;54.750;9.124;2022-11-15T06:25:10;50.47;;;31.63;;
23140;SDS011;11739;54.750;9.124;2022-11-15T06:27:36;50.28;;;34.08;;
23140;SDS011;11739;54.750;9.124;2022-11-15T06:30:03;56.08;;;33.28;;
23140;SDS011;11739;54.750;9.124;2022-11-15T06:32:29;51.03;;;32.80;;
23140;SDS011;11739;54.750;9.124;2022-11-15T06:34:56;49.63;;;31.95;;
23140;SDS011;11739;54.750;9.124;2022-11-15T06:37:23;51.45;;;32.67;;
23140;SDS011;11739;54.750;9.124;2022-11-15T06:39:49;52.95;;;33.03;;
23140;SDS011;11739;54.750;9.124;2022-11-15T06:42:16;50.17;;;31.83;;
23140;SDS011;11739;54.750;9.124;2022-11-15T06:44:42;50.33;;;33.00;;
23140;SDS011;11739;54.750;9.124;2022-11-15T06:47:09;48.97;;;32.08;;
23140;SDS011;11739;54.750;9.124;2022-11-15T06:49:35;49.60;;;31.90;;
23140;SDS011;11739;54.750;9.124;2022-11-15T06:52:02;48.78;;;31.88;;
23140;SDS011;11739;54.750;9.124;2022-11-15T06:54:28;49.25;;;32.53;;
23140;SDS011;11739;54.750;9.124;2022-11-15T06:56:55;47.85;;;32.90;;
23140;SDS011;11739;54.750;9.124;2022-11-15T06:59:21;45.53;;;31.05;;
23140;SDS011;11739;54.750;9.124;2022-11-15T07:01:48;49.90;;;32.55;;
23140;SDS011;11739;54.750;9.124;2022-11-15T07:04:15;49.95;;;30.90;;
23140;SDS011;11739;54.750;9.124;2022-11-15T07:06:41;50.88;;;32.58;;
23140;SDS011;11739;54.750;9.124;2022-11-15T07:09:08;45.53;;;30.83;;
23140;SDS011;11739;54.750;9.124;2022-11-15T07:11:34;46.85;;;30.63;;
23140;SDS011;11739;54.750;9.124;2022-11-15T07:14:01;46.63;;;30.85;;
23140;SDS011;11739;54.750;9.124;2022-11-15T07:16:27;46.30;;;32.20;;
23140;SDS011;11739;54.750;9.124;2022-11-15T07:18:54;47.15;;;31.35;;
23140;SDS011;11739;54.750;9.124;2022-11-15T07:21:20;44.83;;;31.23;;
23140;SDS011;11739;54.750;9.124;2022-11-15T07:23:52;43.22;;;29.45;;
23140;SDS011;11739;54.750;9.124;2022-11-15T07:26:19;39.28;;;29.05;;
23140;SDS011;11739;54.750;9.124;2022-11-15T07:28:45;42.47;;;30.60;;
23140;SDS011;11739;54.750;9.124;2022-11-15T07:31:12;39.50;;;28.13;;
23140;SDS011;11739;54.750;9.124;2022-11-15T07:33:38;38.22;;;28.95;;
23140;SDS011;11739;54.750;9.124;2022-11-15T07:36:05;38.63;;;28.05;;
23140;SDS011;11739;54.750;9.124;2022-11-15T07:38:33;44.20;;;30.42;;
23140;SDS011;11739;54.750;9.124;2022-11-15T07:41:07;40.10;;;29.27;;
23140;SDS011;11739;54.750;9.124;2022-11-15T07:43:33;40.28;;;28.02;;
23140;SDS011;11739;54.750;9.124;2022-11-15T07:46:04;37.47;;;28.27;;
23140;SDS011;11739;54.750;9.124;2022-11-15T07:48:31;39.33;;;27.55;;
23140;SDS011;11739;54.750;9.124;2022-11-15T07:51:10;41.35;;;27.90;;
23140;SDS011;11739;54.750;9.124;2022-11-15T07:53:41;38.92;;;27.73;;
23140;SDS011;11739;54.750;9.124;2022-11-15T07:56:08;37.97;;;27.00;;
23140;SDS011;11739;54.750;9.124;2022-11-15T07:58:35;40.53;;;27.73;;
23140;SDS011;11739;54.750;9.124;2022-11-15T08:01:05;37.55;;;27.00;;
23140;SDS011;11739;54.750;9.124;2022-11-15T08:03:32;35.42;;;27.13;;
23140;SDS011;11739;54.750;9.124;2022-11-15T08:05:59;40.10;;;28.80;;
23140;SDS011;11739;54.750;9.124;2022-11-15T08:08:26;38.78;;;28.83;;
23140;SDS011;11739;54.750;9.124;2022-11-15T08:10:52;42.13;;;27.92;;
23140;SDS011;11739;54.750;9.124;2022-11-15T08:13:19;41.08;;;28.23;;
23140;SDS011;11739;54.750;9.124;2022-11-15T08:15:45;40.13;;;28.85;;
23140;SDS011;11739;54.750;9.124;2022-11-15T08:18:13;42.83;;;28.27;;
23140;SDS011;11739;54.750;9.124;2022-11-15T08:20:41;41.72;;;28.75;;
23140;SDS011;11739;54.750;9.124;2022-11-15T08:23:10;37.70;;;27.15;;
23140;SDS011;11739;54.750;9.124;2022-11-15T08:25:37;39.92;;;28.35;;
23140;SDS011;11739;54.750;9.124;2022-11-15T08:28:05;39.33;;;28.85;;
23140;SDS011;11739;54.750;9.124;2022-11-15T08:30:40;41.42;;;28.77;;
23140;SDS011;11739;54.750;9.124;2022-11-15T08:33:11;39.10;;;28.25;;
23140;SDS011;11739;54.750;9.124;2022-11-15T08:35:40;36.42;;;27.40;;
23140;SDS011;11739;54.750;9.124;2022-11-15T08:38:07;40.70;;;27.95;;
23140;SDS011;11739;54.750;9.124;2022-11-15T08:40:33;38.28;;;27.58;;
23140;SDS011;11739;54.750;9.124;2022-11-15T08:43:00;39.33;;;27.90;;
23140;SDS011;11739;54.750;9.124;2022-11-15T08:45:29;36.83;;;26.92;;
23140;SDS011;11739;54.750;9.124;2022-11-15T08:47:55;38.88;;;28.45;;
23140;SDS011;11739;54.750;9.124;2022-11-15T08:50:22;36.47;;;26.67;;
23140;SDS011;11739;54.750;9.124;2022-11-15T08:52:49;38.35;;;26.45;;
23140;SDS011;11739;54.750;9.124;2022-11-15T08:55:15;38.20;;;28.05;;
23140;SDS011;11739;54.750;9.124;2022-11-15T08:57:43;38.80;;;28.27;;
23140;SDS011;11739;54.750;9.124;2022-11-15T09:00:09;41.08;;;28.45;;
23140;SDS011;11739;54.750;9.124;2022-11-15T09:02:38;37.53;;;27.88;;
23140;SDS011;11739;54.750;9.124;2022-11-15T09:05:05;38.58;;;28.17;;
23140;SDS011;11739;54.750;9.124;2022-11-15T09:07:32;36.97;;;27.17;;
23140;SDS011;11739;54.750;9.124;2022-11-15T09:09:59;39.55;;;27.67;;
23140;SDS011;11739;54.750;9.124;2022-11-15T09:12:25;37.65;;;27.13;;
23140;SDS011;11739;54.750;9.124;2022-11-15T09:14:52;38.00;;;27.63;;
23140;SDS011;11739;54.750;9.124;2022-11-15T09:17:18;39.40;;;27.27;;
23140;SDS011;11739;54.750;9.124;2022-11-15T09:19:49;37.50;;;27.65;;
23140;SDS011;11739;54.750;9.124;2022-11-15T09:22:16;35.63;;;26.85;;
23140;SDS011;11739;54.750;9.124;2022-11-15T09:24:42;39.83;;;28.67;;
23140;SDS011;11739;54.750;9.124;2022-11-15T09:27:09;44.38;;;29.00;;
23140;SDS011;11739;54.750;9.124;2022-11-15T09:29:36;37.03;;;27.83;;
23140;SDS011;11739;54.750;9.124;2022-11-15T09:32:03;44.53;;;28.83;;
23140;SDS011;11739;54.750;9.124;2022-11-15T09:34:29;38.22;;;27.35;;
23140;SDS011;11739;54.750;9.124;2022-11-15T09:36:55;39.40;;;27.48;;
23140;SDS011;11739;54.750;9.124;2022-11-15T09:39:22;40.70;;;26.52;;
23140;SDS011;11739;54.750;9.124;2022-11-15T09:42:01;40.83;;;27.55;;
23140;SDS011;11739;54.750;9.124;2022-11-15T09:50:00;39.40;;;27.35;;
23140;SDS011;11739;54.750;9.124;2022-11-15T09:52:33;36.85;;;26.05;;
23140;SDS011;11739;54.750;9.124;2022-11-15T09:55:01;35.95;;;26.98;;
23140;SDS011;11739;54.750;9.124;2022-11-15T10:00:34;38.30;;;26.90;;
23140;SDS011;11739;54.750;9.124;2022-11-15T10:03:30;35.28;;;25.83;;
23140;SDS011;11739;54.750;9.124;2022-11-15T10:06:01;35.00;;;25.77;;
23140;SDS011;11739;54.750;9.124;2022-11-15T10:11:30;35.33;;;25.67;;
23140;SDS011;11739;54.750;9.124;2022-11-15T10:14:23;33.97;;;26.10;;
23140;SDS011;11739;54.750;9.124;2022-11-15T10:16:55;34.22;;;24.60;;
23140;SDS011;11739;54.750;9.124;2022-11-15T10:22:30;31.70;;;24.38;;
23140;SDS011;11739;54.750;9.124;2022-11-15T10:27:50;33.10;;;24.38;;
23140;SDS011;11739;54.750;9.124;2022-11-15T10:30:19;32.28;;;25.58;;
23140;SDS011;11739;54.750;9.124;2022-11-15T10:32:46;29.92;;;24.08;;
23140;SDS011;11739;54.750;9.124;2022-11-15T10:35:24;31.13;;;23.77;;
23140;SDS011;11739;54.750;9.124;2022-11-15T10:37:56;32.17;;;23.98;;
23140;SDS011;11739;54.750;9.124;2022-11-15T10:40:31;33.25;;;24.85;;
23140;SDS011;11739;54.750;9.124;2022-11-15T10:43:31;32.20;;;24.77;;
23140;SDS011;11739;54.750;9.124;2022-11-15T10:45:52;31.63;;;24.38;;
23140;SDS011;11739;54.750;9.124;2022-11-15T10:50:49;30.80;;;23.98;;
23140;SDS011;11739;54.750;9.124;2022-11-15T10:53:20;32.97;;;23.75;;
23140;SDS011;11739;54.750;9.124;2022-11-15T10:55:50;31.67;;;23.00;;
23140;SDS011;11739;54.750;9.124;2022-11-15T10:58:33;29.50;;;23.38;;
23140;SDS011;11739;54.750;9.124;2022-11-15T11:01:22;32.15;;;23.88;;
23140;SDS011;11739;54.750;9.124;2022-11-15T11:04:05;29.42;;;22.98;;
23140;SDS011;11739;54.750;9.124;2022-11-15T11:06:55;30.58;;;23.67;;
23140;SDS011;11739;54.750;9.124;2022-11-15T11:09:33;30.88;;;23.85;;
23140;SDS011;11739;54.750;9.124;2022-11-15T11:12:05;34.30;;;23.52;;
23140;SDS011;11739;54.750;9.124;2022-11-15T11:14:35;29.83;;;22.65;;
23140;SDS011;11739;54.750;9.124;2022-11-15T11:17:16;33.45;;;23.55;;
23140;SDS011;11739;54.750;9.124;2022-11-15T11:22:34;32.90;;;22.85;;
23140;SDS011;11739;54.750;9.124;2022-11-15T11:25:22;30.17;;;22.98;;
23140;SDS011;11739;54.750;9.124;2022-11-15T11:38:58;30.45;;;21.83;;
23140;SDS011;11739;54.750;9.124;2022-11-15T11:41:40;27.50;;;22.60;;
23140;SDS011;11739;54.750;9.124;2022-11-15T11:44:25;28.40;;;22.60;;
23140;SDS011;11739;54.750;9.124;2022-11-15T11:47:09;29.90;;;22.80;;
23140;SDS011;11739;54.750;9.124;2022-11-15T11:52:22;32.88;;;22.58;;
23140;SDS011;11739;54.750;9.124;2022-11-15T12:00:25;30.60;;;23.00;;
23140;SDS011;11739;54.750;9.124;2022-11-15T12:03:04;31.58;;;22.65;;
23140;SDS011;11739;54.750;9.124;2022-11-15T12:05:46;31.35;;;23.25;;
23140;SDS011;11739;54.750;9.124;2022-11-15T12:10:48;31.13;;;23.95;;
23140;SDS011;11739;54.750;9.124;2022-11-15T12:13:20;30.40;;;22.58;;
23140;SDS011;11739;54.750;9.124;2022-11-15T12:15:58;31.20;;;24.10;;
23140;SDS011;11739;54.750;9.124;2022-11-15T12:18:34;32.20;;;23.83;;
23140;SDS011;11739;54.750;9.124;2022-11-15T12:21:03;29.98;;;23.65;;
23140;SDS011;11739;54.750;9.124;2022-11-15T12:23:45;31.08;;;22.92;;
23140;SDS011;11739;54.750;9.124;2022-11-15T12:26:25;31.48;;;23.58;;
23140;SDS011;11739;54.750;9.124;2022-11-15T12:28:56;31.95;;;23.10;;
23140;SDS011;11739;54.750;9.124;2022-11-15T12:34:01;29.27;;;22.25;;
23140;SDS011;11739;54.750;9.124;2022-11-15T12:36:43;27.92;;;22.98;;
23140;SDS011;11739;54.750;9.124;2022-11-15T12:39:10;29.27;;;22.63;;
23140;SDS011;11739;54.750;9.124;2022-11-15T12:47:00;29.23;;;23.50;;
23140;SDS011;11739;54.750;9.124;2022-11-15T13:02:33;26.40;;;21.05;;
23140;SDS011;11739;54.750;9.124;2022-11-15T13:17:44;25.05;;;20.55;;
23140;SDS011;11739;54.750;9.124;2022-11-15T13:22:47;25.38;;;20.70;;
23140;SDS011;11739;54.750;9.124;2022-11-15T13:31:27;27.30;;;19.77;;
23140;SDS011;11739;54.750;9.124;2022-11-15T13:34:14;27.05;;;19.90;;
23140;SDS011;11739;54.750;9.124;2022-11-15T13:37:12;24.30;;;19.27;;
23140;SDS011;11739;54.750;9.124;2022-11-15T13:39:49;24.67;;;19.08;;
23140;SDS011;11739;54.750;9.124;2022-11-15T13:42:19;23.45;;;19.27;;
23140;SDS011;11739;54.750;9.124;2022-11-15T13:44:57;23.77;;;19.33;;
23140;SDS011;11739;54.750;9.124;2022-11-15T13:47:28;22.98;;;18.30;;
23140;SDS011;11739;54.750;9.124;2022-11-15T13:49:58;23.15;;;19.65;;
23140;SDS011;11739;54.750;9.124;2022-11-15T13:52:27;23.00;;;18.20;;
23140;SDS011;11739;54.750;9.124;2022-11-15T13:55:04;24.15;;;19.65;;
23140;SDS011;11739;54.750;9.124;2022-11-15T13:57:51;24.20;;;19.27;;
23140;SDS011;11739;54.750;9.124;2022-11-15T14:00:30;27.73;;;20.55;;
23140;SDS011;11739;54.750;9.124;2022-11-15T14:03:07;21.45;;;18.55;;
23140;SDS011;11739;54.750;9.124;2022-11-15T14:08:38;23.90;;;19.27;;
23140;SDS011;11739;54.750;9.124;2022-11-15T14:11:12;24.20;;;17.83;;
23140;SDS011;11739;54.750;9.124;2022-11-15T14:14:02;21.42;;;17.48;;
23140;SDS011;11739;54.750;9.124;2022-11-15T14:16:38;20.13;;;17.85;;
23140;SDS011;11739;54.750;9.124;2022-11-15T14:19:06;23.10;;;18.75;;
23140;SDS011;11739;54.750;9.124;2022-11-15T14:21:35;19.48;;;17.33;;
23140;SDS011;11739;54.750;9.124;2022-11-15T14:24:18;21.98;;;17.85;;
23140;SDS011;11739;54.750;9.124;2022-11-15T14:26:45;23.23;;;17.60;;
23140;SDS011;11739;54.750;9.124;2022-11-15T14:29:28;20.33;;;17.90;;
23140;SDS011;11739;54.750;9.124;2022-11-15T14:32:11;19.42;;;14.75;;
23140;SDS011;11739;54.750;9.124;2022-11-15T14:34:39;23.92;;;18.30;;
23140;SDS011;11739;54.750;9.124;2022-11-15T14:37:10;20.55;;;17.75;;
23140;SDS011;11739;54.750;9.124;2022-11-15T14:39:44;21.58;;;16.98;;
23140;SDS011;11739;54.750;9.124;2022-11-15T14:42:11;20.45;;;17.67;;
23140;SDS011;11739;54.750;9.124;2022-11-15T14:44:37;21.35;;;17.00;;
23140;SDS011;11739;54.750;9.124;2022-11-15T14:47:10;17.15;;;13.52;;
23140;SDS011;11739;54.750;9.124;2022-11-15T14:49:37;20.52;;;16.70;;
23140;SDS011;11739;54.750;9.124;2022-11-15T14:52:07;19.98;;;16.95;;
23140;SDS011;11739;54.750;9.124;2022-11-15T14:54:41;22.20;;;17.38;;
23140;SDS011;11739;54.750;9.124;2022-11-15T14:57:07;19.90;;;17.05;;
23140;SDS011;11739;54.750;9.124;2022-11-15T14:59:34;21.35;;;17.48;;
23140;SDS011;11739;54.750;9.124;2022-11-15T15:02:00;21.58;;;17.25;;
23140;SDS011;11739;54.750;9.124;2022-11-15T15:04:27;19.88;;;16.27;;
23140;SDS011;11739;54.750;9.124;2022-11-15T15:06:53;21.73;;;18.13;;
23140;SDS011;11739;54.750;9.124;2022-11-15T15:09:20;23.13;;;17.25;;
23140;SDS011;11739;54.750;9.124;2022-11-15T15:11:46;19.85;;;17.67;;
23140;SDS011;11739;54.750;9.124;2022-11-15T15:14:13;20.83;;;17.48;;
23140;SDS011;11739;54.750;9.124;2022-11-15T15:16:40;21.95;;;16.95;;
23140;SDS011;11739;54.750;9.124;2022-11-15T15:19:06;20.13;;;16.63;;
23140;SDS011;11739;54.750;9.124;2022-11-15T15:21:33;21.25;;;18.02;;
23140;SDS011;11739;54.750;9.124;2022-11-15T15:24:02;21.45;;;17.58;;
23140;SDS011;11739;54.750;9.124;2022-11-15T15:26:29;19.92;;;16.83;;
23140;SDS011;11739;54.750;9.124;2022-11-15T15:28:59;21.42;;;17.60;;
23140;SDS011;11739;54.750;9.124;2022-11-15T15:31:26;19.30;;;16.98;;
23140;SDS011;11739;54.750;9.124;2022-11-15T15:33:52;22.17;;;18.02;;
23140;SDS011;11739;54.750;9.124;2022-11-15T15:36:19;21.30;;;18.33;;
23140;SDS011;11739;54.750;9.124;2022-11-15T15:38:45;24.25;;;18.23;;
23140;SDS011;11739;54.750;9.124;2022-11-15T15:41:16;21.92;;;17.67;;
23140;SDS011;11739;54.750;9.124;2022-11-15T15:43:42;21.35;;;17.67;;
23140;SDS011;11739;54.750;9.124;2022-11-15T15:46:19;22.70;;;16.70;;
23140;SDS011;11739;54.750;9.124;2022-11-15T15:48:46;20.92;;;16.70;;
23140;SDS011;11739;54.750;9.124;2022-11-15T15:51:12;22.52;;;17.10;;
23140;SDS011;11739;54.750;9.124;2022-11-15T15:53:46;20.98;;;14.15;;
23140;SDS011;11739;54.750;9.124;2022-11-15T15:56:13;23.85;;;17.98;;
23140;SDS011;11739;54.750;9.124;2022-11-15T15:58:40;27.40;;;18.10;;
23140;SDS011;11739;54.750;9.124;2022-11-15T16:01:06;22.83;;;17.30;;
23140;SDS011;11739;54.750;9.124;2022-11-15T16:03:33;20.38;;;17.90;;
23140;SDS011;11739;54.750;9.124;2022-11-15T16:06:00;24.38;;;18.35;;
23140;SDS011;11739;54.750;9.124;2022-11-15T16:08:27;20.67;;;17.73;;
23140;SDS011;11739;54.750;9.124;2022-11-15T16:11:12;21.17;;;18.15;;
23140;SDS011;11739;54.750;9.124;2022-11-15T16:13:39;20.67;;;16.95;;
23140;SDS011;11739;54.750;9.124;2022-11-15T16:16:07;21.27;;;17.50;;
23140;SDS011;11739;54.750;9.124;2022-11-15T16:18:35;20.67;;;17.88;;
23140;SDS011;11739;54.750;9.124;2022-11-15T16:21:01;23.05;;;18.08;;
23140;SDS011;11739;54.750;9.124;2022-11-15T16:23:28;20.23;;;17.60;;
23140;SDS011;11739;54.750;9.124;2022-11-15T16:25:55;22.73;;;16.77;;
23140;SDS011;11739;54.750;9.124;2022-11-15T16:28:23;21.50;;;17.70;;
23140;SDS011;11739;54.750;9.124;2022-11-15T16:31:15;21.92;;;17.85;;
23140;SDS011;11739;54.750;9.124;2022-11-15T16:33:38;19.70;;;17.55;;
23140;SDS011;11739;54.750;9.124;2022-11-15T16:36:06;21.02;;;17.70;;
23140;SDS011;11739;54.750;9.124;2022-11-15T16:38:38;24.30;;;18.92;;
23140;SDS011;11739;54.750;9.124;2022-11-15T16:41:05;26.35;;;18.40;;
23140;SDS011;11739;54.750;9.124;2022-11-15T16:43:31;23.95;;;18.60;;